Time;durP1;ratioP1;P1;durP2;ratioP2;P2;SDS_P1;SDS_P2;PMS_P1;PMS_P2;Temp;Humidity;BMP_temperature;BMP_pressure;BME280_temperature;BME280_humidity;BME280_pressure;Samples;Min_cycle;Max_cycle;Signal;HPM_P1;HPM_P2
2021/12/04 00:02:23;;;;;;;6.25;1.23;;;20.00;69.30;;;;;;4990479;28;20041;-73
2021/12/04 00:04:52;;;;;;;7.13;1.75;;;20.00;69.40;;;;;;4994234;28;20022;-72
2021/12/04 00:07:20;;;;;;;2.75;1.08;;;20.00;69.20;;;;;;4996014;28;20033;-72
2021/12/04 00:09:49;;;;;;;7.85;1.20;;;20.10;69.20;;;;;;4992756;28;20036;-72
2021/12/04 00:12:16;;;;;;;3.88;1.20;;;20.00;69.10;;;;;;4996667;28;20030;-73
2021/12/04 00:14:43;;;;;;;5.45;1.80;;;20.00;69.10;;;;;;4995728;28;20030;-71
2021/12/04 00:17:10;;;;;;;5.63;1.08;;;20.00;69.10;;;;;;4997894;28;20130;-73
2021/12/04 00:19:36;;;;;;;8.35;1.50;;;20.00;69.20;;;;;;4993802;28;20377;-72
2021/12/04 00:22:04;;;;;;;10.25;2.78;;;20.00;69.30;;;;;;4994623;28;20030;-72
2021/12/04 00:24:31;;;;;;;8.35;1.65;;;20.10;69.70;;;;;;4994667;28;20045;-72
2021/12/04 00:26:58;;;;;;;6.22;1.77;;;20.10;69.70;;;;;;4995516;28;20031;-73
2021/12/04 00:29:25;;;;;;;4.90;1.85;;;20.10;69.50;;;;;;4991515;28;20384;-72
2021/12/04 00:32:11;;;;;;;5.78;1.25;;;20.10;69.20;;;;;;4992852;28;20095;-76
2021/12/04 00:34:45;;;;;;;5.13;1.40;;;20.10;69.20;;;;;;4990840;28;20440;-74
2021/12/04 00:37:29;;;;;;;3.28;1.80;;;20.10;69.30;;;;;;4994808;28;20015;-77
2021/12/04 00:51:00;;;;;;;5.00;1.10;;;20.00;68.70;;;;;;4992299;28;20037;-73
2021/12/04 00:53:26;;;;;;;3.00;0.80;;;20.10;68.60;;;;;;4994232;28;20030;-71
2021/12/04 00:55:53;;;;;;;3.40;1.80;;;20.10;68.50;;;;;;4994065;28;20462;-72
2021/12/04 00:58:19;;;;;;;7.82;1.83;;;20.10;69.10;;;;;;4991267;28;20026;-72
2021/12/04 01:00:46;;;;;;;7.40;1.95;;;20.10;69.50;;;;;;4993846;28;20618;-75
2021/12/04 01:03:12;;;;;;;10.23;1.85;;;20.10;69.70;;;;;;4993694;28;20105;-72
2021/12/04 01:05:40;;;;;;;19.88;2.67;;;20.10;70.10;;;;;;4993013;28;20080;-72
2021/12/04 01:08:07;;;;;;;9.23;2.38;;;20.00;70.10;;;;;;4994340;28;20469;-71
2021/12/04 01:10:35;;;;;;;8.43;2.00;;;20.00;70.40;;;;;;4992189;28;20030;-71
2021/12/04 01:13:04;;;;;;;7.88;1.92;;;20.00;70.90;;;;;;4991799;28;20018;-75
2021/12/04 01:15:31;;;;;;;5.93;2.20;;;20.00;70.90;;;;;;5019975;28;20465;-72
2021/12/04 01:17:58;;;;;;;11.80;2.10;;;20.00;71.10;;;;;;4993405;28;20030;-73
2021/12/04 01:20:24;;;;;;;4.43;1.25;;;19.90;71.10;;;;;;4991284;28;20058;-72
2021/12/04 01:22:51;;;;;;;4.55;1.67;;;19.90;70.60;;;;;;4994540;28;20081;-72
2021/12/04 01:25:17;;;;;;;2.22;1.00;;;19.90;70.10;;;;;;4994207;28;20046;-72
2021/12/04 01:27:45;;;;;;;3.75;1.20;;;19.90;70.00;;;;;;4992096;28;20039;-73
2021/12/04 01:30:14;;;;;;;7.85;1.73;;;19.90;70.00;;;;;;4988815;28;20026;-72
2021/12/04 01:32:40;;;;;;;5.85;2.05;;;19.90;70.50;;;;;;4993543;28;20053;-72
2021/12/04 01:35:07;;;;;;;4.28;1.42;;;20.00;70.90;;;;;;4990091;28;20054;-72
2021/12/04 01:37:34;;;;;;;10.77;2.00;;;20.00;71.50;;;;;;4991451;28;20027;-72
2021/12/04 01:40:00;;;;;;;6.88;2.20;;;19.90;71.60;;;;;;4992893;28;20068;-73
2021/12/04 01:42:28;;;;;;;9.15;2.83;;;19.90;71.80;;;;;;4989172;28;20105;-72
2021/12/04 01:44:55;;;;;;;7.18;2.10;;;19.90;72.00;;;;;;4991508;28;20386;-73
2021/12/04 01:47:21;;;;;;;8.93;2.15;;;19.90;72.20;;;;;;4993342;28;20142;-73
2021/12/04 01:49:49;;;;;;;8.38;1.75;;;19.80;72.20;;;;;;4991794;28;20030;-72
2021/12/04 01:52:20;;;;;;;15.07;2.47;;;19.80;72.10;;;;;;4989370;28;20019;-72
2021/12/04 01:54:48;;;;;;;8.27;2.70;;;19.80;72.20;;;;;;4990271;28;20120;-72
2021/12/04 01:57:16;;;;;;;10.57;3.03;;;19.70;72.30;;;;;;4995061;28;20034;-77
2021/12/04 01:59:44;;;;;;;6.20;2.20;;;19.80;72.50;;;;;;4991977;28;20386;-73
2021/12/04 02:02:11;;;;;;;7.65;2.60;;;19.70;72.30;;;;;;4988831;28;20044;-72
2021/12/04 02:04:37;;;;;;;8.20;2.30;;;19.70;72.20;;;;;;4991852;28;20089;-71
2021/12/04 02:07:04;;;;;;;7.90;2.25;;;19.80;72.10;;;;;;4989629;28;20053;-72
2021/12/04 02:09:35;;;;;;;23.27;16.67;;;19.70;71.80;;;;;;4992915;28;20065;-73
2021/12/04 02:12:05;;;;;;;16.80;11.57;;;19.80;71.70;;;;;;4987579;28;20041;-72
2021/12/04 02:14:40;;;;;;;5.50;3.25;;;19.80;71.40;;;;;;4992618;28;20559;-72
2021/12/04 02:17:08;;;;;;;8.35;1.80;;;19.80;71.40;;;;;;4993503;28;20030;-72
2021/12/04 02:19:34;;;;;;;5.45;1.90;;;19.90;71.40;;;;;;4992923;28;21523;-72
2021/12/04 02:22:01;;;;;;;11.10;2.20;;;19.90;71.50;;;;;;4990111;28;20069;-72
2021/12/04 02:24:28;;;;;;;6.93;1.60;;;19.90;71.70;;;;;;4994099;28;20014;-75
2021/12/04 02:26:55;;;;;;;6.97;1.98;;;19.80;72.00;;;;;;4993191;28;20115;-72
2021/12/04 02:29:21;;;;;;;4.53;1.83;;;19.80;72.10;;;;;;4990139;28;20141;-72
2021/12/04 02:31:53;;;;;;;8.02;2.75;;;19.80;72.40;;;;;;4990361;28;20536;-71
2021/12/04 02:34:25;;;;;;;7.43;2.72;;;19.80;72.70;;;;;;4992301;28;20022;-72
2021/12/04 02:36:51;;;;;;;7.57;2.45;;;19.80;73.00;;;;;;4991754;28;20556;-72
2021/12/04 02:39:28;;;;;;;28.35;3.20;;;19.80;72.90;;;;;;4996478;28;20100;-75
2021/12/04 02:41:55;;;;;;;8.82;2.55;;;19.80;73.00;;;;;;4988721;28;20113;-71
2021/12/04 02:44:24;;;;;;;9.27;1.98;;;19.80;73.20;;;;;;4992901;28;20095;-72
2021/12/04 02:46:51;;;;;;;7.32;1.83;;;19.80;73.20;;;;;;4993316;28;20061;-71
2021/12/04 02:49:17;;;;;;;9.73;2.40;;;19.80;73.30;;;;;;4994364;28;20054;-71
2021/12/04 02:51:44;;;;;;;7.97;1.98;;;19.80;73.40;;;;;;4989376;28;20453;-71
2021/12/04 02:54:11;;;;;;;7.00;1.92;;;19.80;73.40;;;;;;4991394;28;20010;-72
2021/12/04 02:56:43;;;;;;;7.38;2.17;;;19.70;73.50;;;;;;4989358;28;20581;-71
2021/12/04 02:59:10;;;;;;;9.25;1.75;;;19.70;73.60;;;;;;4994571;28;20430;-72
2021/12/04 03:01:39;;;;;;;7.10;2.22;;;19.70;73.70;;;;;;4993352;28;20030;-71
2021/12/04 03:04:10;;;;;;;6.55;2.47;;;19.70;73.80;;;;;;4988966;28;20073;-72
2021/12/04 03:06:46;;;;;;;5.20;1.52;;;19.70;73.90;;;;;;4987147;28;20094;-71
2021/12/04 03:09:14;;;;;;;6.05;1.73;;;19.70;74.20;;;;;;4988307;28;20474;-72
2021/12/04 03:11:41;;;;;;;8.05;2.08;;;19.60;74.00;;;;;;4989106;28;20025;-72
2021/12/04 03:14:09;;;;;;;6.18;2.00;;;19.60;74.00;;;;;;4990198;28;20026;-72
2021/12/04 03:16:37;;;;;;;7.22;1.40;;;19.60;74.20;;;;;;4988761;28;20025;-73
2021/12/04 03:19:05;;;;;;;14.63;3.15;;;19.60;74.10;;;;;;4994196;28;20018;-71
2021/12/04 03:21:34;;;;;;;8.63;1.80;;;19.60;74.00;;;;;;4988673;28;20493;-72
2021/12/04 03:24:04;;;;;;;6.57;2.00;;;19.60;74.00;;;;;;4991366;28;20023;-72
2021/12/04 03:26:31;;;;;;;7.97;2.70;;;19.60;73.90;;;;;;4990170;28;20121;-72
2021/12/04 03:29:01;;;;;;;13.02;2.38;;;19.60;74.60;;;;;;4991215;28;20022;-71
2021/12/04 03:42:12;;;;;;;7.00;2.60;;;19.50;73.50;;;;;;4991006;28;20053;-70
2021/12/04 03:44:39;;;;;;;8.90;1.83;;;19.50;73.40;;;;;;4994465;28;20022;-76
2021/12/04 03:47:07;;;;;;;5.68;2.58;;;19.50;73.30;;;;;;4990731;28;20587;-71
2021/12/04 03:49:33;;;;;;;53.65;42.85;;;19.50;72.60;;;;;;4992015;28;20014;-72
2021/12/04 03:52:00;;;;;;;23.73;8.20;;;19.50;72.70;;;;;;4991106;28;20490;-73
2021/12/04 03:54:28;;;;;;;6.10;2.22;;;19.60;72.40;;;;;;4991311;28;20510;-73
2021/12/04 03:57:04;;;;;;;4.47;1.15;;;19.60;72.60;;;;;;4990566;28;20398;-71
2021/12/04 03:59:32;;;;;;;5.35;2.20;;;19.60;73.20;;;;;;4986022;28;20022;-76
2021/12/04 04:01:59;;;;;;;10.60;2.38;;;19.60;73.90;;;;;;4994074;28;20386;-74
2021/12/04 04:04:25;;;;;;;12.20;3.38;;;19.60;74.20;;;;;;4990137;28;20104;-70
2021/12/04 04:06:52;;;;;;;9.43;2.00;;;19.60;74.40;;;;;;4991619;28;20038;-72
2021/12/04 04:09:18;;;;;;;9.88;2.00;;;19.50;74.60;;;;;;4990683;28;20021;-71
2021/12/04 04:11:47;;;;;;;11.95;2.22;;;19.50;74.80;;;;;;4988112;28;20034;-71
2021/12/04 04:14:14;;;;;;;13.73;4.32;;;19.60;74.90;;;;;;4988816;28;20029;-70
2021/12/04 04:16:41;;;;;;;14.75;2.45;;;19.60;75.10;;;;;;4987060;28;20105;-71
2021/12/04 04:19:08;;;;;;;23.85;4.15;;;19.50;75.20;;;;;;4990194;28;20030;-70
2021/12/04 04:21:40;;;;;;;34.80;21.17;;;19.50;75.50;;;;;;4989605;28;20022;-71
2021/12/04 04:24:11;;;;;;;16.50;9.70;;;19.60;75.80;;;;;;4990439;28;20395;-72
2021/12/04 04:26:38;;;;;;;10.32;4.00;;;19.60;75.70;;;;;;4988270;28;20038;-72
2021/12/04 04:29:07;;;;;;;10.75;2.45;;;19.60;75.70;;;;;;4988722;28;20058;-71
2021/12/04 04:31:34;;;;;;;11.48;2.95;;;19.60;75.40;;;;;;4989846;28;20038;-71
2021/12/04 04:34:08;;;;;;;10.52;1.83;;;19.70;75.40;;;;;;4989179;28;20481;-72
2021/12/04 04:58:23;;;;;;;7.87;3.20;;;19.90;73.90;;;;;;4989396;28;20447;-73
2021/12/04 05:11:22;;;;;;;8.20;1.77;;;20.00;70.70;;;;;;4986214;28;20106;-71
2021/12/04 05:13:50;;;;;;;9.00;1.70;;;20.10;70.00;;;;;;4957853;28;20071;-71
2021/12/04 05:16:59;;;;;;;7.05;1.58;;;20.10;70.20;;;;;;4990183;28;20030;-71
2021/12/04 05:19:39;;;;;;;6.30;1.50;;;20.00;71.10;;;;;;4988574;28;20026;-71
2021/12/04 05:22:10;;;;;;;18.02;4.15;;;20.00;72.10;;;;;;4986232;28;20034;-71
2021/12/04 05:24:36;;;;;;;31.15;14.85;;;20.00;72.90;;;;;;4989082;28;20038;-71
2021/12/04 05:27:03;;;;;;;17.95;10.73;;;20.10;73.10;;;;;;4990970;28;20025;-72
2021/12/04 05:29:30;;;;;;;10.60;3.70;;;20.10;72.50;;;;;;4988465;28;20484;-71
2021/12/04 05:31:57;;;;;;;4.07;1.45;;;20.10;71.80;;;;;;4988100;28;20019;-74
2021/12/04 05:34:23;;;;;;;8.73;1.40;;;20.10;70.80;;;;;;4987762;28;20022;-73
2021/12/04 05:36:50;;;;;;;4.70;1.27;;;20.10;70.40;;;;;;4991953;28;20045;-71
2021/12/04 05:39:17;;;;;;;7.28;1.15;;;20.10;70.00;;;;;;4987249;28;20493;-72
2021/12/04 05:41:44;;;;;;;6.85;1.73;;;20.10;69.90;;;;;;4994044;28;20363;-73
2021/12/04 05:44:35;;;;;;;9.88;1.90;;;20.10;70.20;;;;;;4991816;28;20046;-71
2021/12/04 05:47:22;;;;;;;9.65;2.55;;;20.10;70.20;;;;;;4990647;28;20180;-74
2021/12/04 05:55:18;;;;;;;10.57;3.20;;;20.10;69.50;;;;;;4990384;28;20034;-75
2021/12/04 05:57:49;;;;;;;6.90;1.30;;;20.10;69.50;;;;;;4994465;28;20046;-75
2021/12/04 06:00:22;;;;;;;12.30;1.80;;;20.10;69.10;;;;;;5002883;28;20057;-76
2021/12/04 06:02:57;;;;;;;4.50;1.20;;;20.00;69.30;;;;;;4992632;28;20029;-79
2021/12/04 06:05:24;;;;;;;7.10;1.20;;;20.00;69.30;;;;;;4987910;28;20026;-81
2021/12/04 06:07:50;;;;;;;7.32;1.60;;;20.00;69.40;;;;;;4993783;28;20042;-80
2021/12/04 06:10:56;;;;;;;9.55;1.30;;;20.00;69.30;;;;;;4990142;28;20027;-76
2021/12/04 06:14:02;;;;;;;5.15;2.42;;;20.10;69.20;;;;;;4990984;28;20453;-80
2021/12/04 06:17:08;;;;;;;5.50;1.38;;;20.10;69.20;;;;;;4988489;28;20026;-74
2021/12/04 06:23:38;;;;;;;3.88;0.98;;;20.20;69.00;;;;;;4987718;28;20033;-75
2021/12/04 06:26:44;;;;;;;10.07;1.85;;;20.20;68.90;;;;;;4986574;28;20060;-75
2021/12/04 06:29:51;;;;;;;5.70;1.60;;;20.20;68.60;;;;;;4988234;28;20065;-80
2021/12/04 06:32:57;;;;;;;3.80;0.98;;;20.20;68.30;;;;;;4986451;28;20027;-75
2021/12/04 06:36:03;;;;;;;9.45;1.52;;;20.20;68.00;;;;;;4982976;28;20022;-76
2021/12/04 06:39:09;;;;;;;2.88;1.10;;;20.20;67.90;;;;;;4984100;28;20022;-76
2021/12/04 06:42:16;;;;;;;4.72;1.08;;;20.30;68.10;;;;;;4987207;28;20481;-77
2021/12/04 06:44:43;;;;;;;8.38;1.85;;;20.30;69.10;;;;;;4988852;28;20045;-78
2021/12/04 06:47:10;;;;;;;8.95;1.60;;;20.30;68.50;;;;;;4986815;28;20096;-74
2021/12/04 06:49:40;;;;;;;8.65;1.55;;;20.30;68.80;;;;;;4991026;28;20030;-76
2021/12/04 06:52:12;;;;;;;9.77;1.50;;;20.30;68.80;;;;;;4988273;28;20490;-78
2021/12/04 06:54:42;;;;;;;8.45;1.55;;;20.30;68.90;;;;;;4989402;28;20022;-80
2021/12/04 06:57:10;;;;;;;6.72;1.27;;;20.30;69.00;;;;;;4987214;28;20019;-75
2021/12/04 06:59:39;;;;;;;5.45;1.90;;;20.40;69.10;;;;;;4989096;28;20123;-77
2021/12/04 07:02:06;;;;;;;6.22;2.20;;;20.40;69.10;;;;;;4988395;28;20093;-73
2021/12/04 07:04:37;;;;;;;6.53;2.13;;;20.40;69.20;;;;;;4990290;28;20037;-73
2021/12/04 07:07:08;;;;;;;10.07;2.10;;;20.40;69.10;;;;;;4989453;28;20040;-76
2021/12/04 07:09:36;;;;;;;8.40;1.80;;;20.40;68.90;;;;;;4990364;28;20784;-76
2021/12/04 07:12:03;;;;;;;7.60;1.80;;;20.50;68.70;;;;;;4991034;28;20038;-73
2021/12/04 07:14:30;;;;;;;4.57;1.52;;;20.50;68.50;;;;;;4987561;28;20097;-79
2021/12/04 07:17:00;;;;;;;7.43;1.65;;;20.50;68.30;;;;;;4992131;28;20019;-78
2021/12/04 07:19:27;;;;;;;5.32;1.92;;;20.50;68.20;;;;;;4994246;28;20014;-78
2021/12/04 07:21:54;;;;;;;8.15;1.73;;;20.60;68.20;;;;;;4992721;28;20029;-77
2021/12/04 07:24:21;;;;;;;8.27;1.90;;;20.60;68.20;;;;;;4993685;28;20377;-78
2021/12/04 07:26:47;;;;;;;8.07;2.40;;;20.60;68.40;;;;;;4988690;28;20027;-74
2021/12/04 07:29:14;;;;;;;8.82;2.28;;;20.60;68.50;;;;;;4990080;28;20022;-78
2021/12/04 07:31:41;;;;;;;9.18;1.90;;;20.60;68.60;;;;;;4997224;28;20469;-82
2021/12/04 07:34:09;;;;;;;6.18;2.22;;;20.60;68.60;;;;;;4995437;28;20019;-81
2021/12/04 07:36:35;;;;;;;12.10;2.35;;;20.70;68.60;;;;;;4991138;28;20037;-78
2021/12/04 07:39:03;;;;;;;4.90;1.45;;;20.70;68.40;;;;;;4997026;28;20136;-79
2021/12/04 07:41:30;;;;;;;5.78;1.10;;;20.70;68.00;;;;;;4996591;28;20018;-78
2021/12/04 07:43:56;;;;;;;4.05;1.85;;;20.70;67.90;;;;;;4994876;28;20058;-74
2021/12/04 07:46:24;;;;;;;7.68;2.30;;;20.80;67.80;;;;;;4991846;28;20078;-75
2021/12/04 07:48:51;;;;;;;17.88;3.70;;;20.80;67.70;;;;;;4994484;28;20109;-75
2021/12/04 07:51:18;;;;;;;11.15;2.60;;;20.80;67.40;;;;;;4993504;28;20619;-74
2021/12/04 07:53:47;;;;;;;5.10;2.85;;;20.90;67.10;;;;;;4994819;28;20469;-75
2021/12/04 07:56:17;;;;;;;12.50;3.08;;;20.80;66.50;;;;;;4991446;28;20030;-76
2021/12/04 07:58:43;;;;;;;6.47;3.08;;;20.90;66.10;;;;;;4995335;28;20105;-75
2021/12/04 08:01:13;;;;;;;5.95;1.95;;;20.90;66.00;;;;;;4992445;28;20010;-75
2021/12/04 08:03:40;;;;;;;7.15;2.20;;;21.00;66.10;;;;;;4995871;28;20112;-75
2021/12/04 08:06:07;;;;;;;8.80;2.35;;;21.10;66.60;;;;;;4995285;28;20038;-76
2021/12/04 08:08:33;;;;;;;13.70;4.22;;;21.10;66.90;;;;;;4995144;28;20680;-74
2021/12/04 08:11:00;;;;;;;8.73;2.17;;;21.10;67.20;;;;;;4999346;28;20030;-75
2021/12/04 08:13:28;;;;;;;8.35;2.95;;;21.20;67.30;;;;;;4996566;28;20026;-78
2021/12/04 08:15:55;;;;;;;30.75;8.88;;;21.30;67.10;;;;;;4991880;28;20505;-78
2021/12/04 08:18:21;;;;;;;8.77;3.33;;;21.30;66.60;;;;;;4992555;28;20030;-82
2021/12/04 08:20:48;;;;;;;6.68;2.80;;;21.40;66.50;;;;;;4989047;28;20031;-76
2021/12/04 08:23:17;;;;;;;7.50;2.88;;;21.40;66.20;;;;;;4990320;28;20023;-80
2021/12/04 08:25:45;;;;;;;10.70;1.60;;;21.40;66.00;;;;;;4992233;28;20022;-76
2021/12/04 08:28:12;;;;;;;8.55;2.40;;;21.40;65.70;;;;;;4990679;28;20623;-76
2021/12/04 08:30:40;;;;;;;6.97;2.40;;;21.50;65.70;;;;;;4994778;28;20104;-79
2021/12/04 08:33:09;;;;;;;9.98;2.25;;;21.50;65.50;;;;;;4993276;28;20034;-74
2021/12/04 08:35:39;;;;;;;7.40;1.88;;;21.50;65.30;;;;;;4992214;28;20017;-77
2021/12/04 08:38:10;;;;;;;16.80;2.28;;;21.50;65.40;;;;;;4993394;28;20014;-77
2021/12/04 08:40:39;;;;;;;11.90;1.65;;;21.50;65.40;;;;;;5025543;28;20010;-76
2021/12/04 08:43:07;;;;;;;6.55;1.48;;;21.50;65.40;;;;;;4994530;28;20430;-76
2021/12/04 08:45:33;;;;;;;9.07;1.77;;;21.50;65.30;;;;;;4995556;28;20041;-77
2021/12/04 08:48:00;;;;;;;8.48;1.48;;;21.50;65.40;;;;;;4974481;28;20042;-80
2021/12/04 08:50:29;;;;;;;4.35;1.88;;;21.50;65.40;;;;;;4974029;28;20041;-75
2021/12/04 08:52:57;;;;;;;7.78;2.10;;;21.50;65.40;;;;;;4972041;28;20022;-76
2021/12/04 08:55:25;;;;;;;14.65;2.17;;;21.40;65.40;;;;;;4977603;28;20010;-76
2021/12/04 08:57:52;;;;;;;5.97;1.80;;;21.50;65.50;;;;;;4973656;28;20030;-78
2021/12/04 09:00:24;;;;;;;10.70;2.50;;;21.40;65.20;;;;;;4976520;28;20073;-78
2021/12/04 09:02:52;;;;;;;14.68;2.47;;;21.40;65.10;;;;;;4973623;28;20019;-75
2021/12/04 09:05:21;;;;;;;15.07;2.75;;;21.40;65.10;;;;;;5003884;28;20023;-77
2021/12/04 09:07:48;;;;;;;11.90;2.15;;;21.40;65.20;;;;;;4977650;28;20034;-80
2021/12/04 09:10:15;;;;;;;14.35;2.15;;;21.50;65.30;;;;;;4970969;28;20345;-78
2021/12/04 09:12:42;;;;;;;11.98;2.40;;;21.40;65.20;;;;;;4973148;28;20529;-77
2021/12/04 09:15:12;;;;;;;9.82;2.08;;;21.50;65.20;;;;;;4971451;28;20011;-76
2021/12/04 09:17:39;;;;;;;9.90;2.15;;;21.40;65.10;;;;;;4972180;28;20015;-78
2021/12/04 09:20:07;;;;;;;8.73;2.38;;;21.50;65.10;;;;;;4975573;28;20022;-81
2021/12/04 09:22:36;;;;;;;6.10;1.92;;;21.50;64.90;;;;;;4973524;28;20026;-76
2021/12/04 09:25:09;;;;;;;5.95;1.20;;;21.50;64.80;;;;;;4971427;28;20497;-74
2021/12/04 10:13:48;;;;;;;11.07;3.70;;;21.80;62.90;;;;;;4989841;28;20049;-74
2021/12/04 10:22:05;;;;;;;7.25;3.03;;;21.90;63.50;;;;;;4996431;28;20132;-74
2021/12/04 10:33:16;;;;;;;4.50;1.70;;;21.90;62.90;;;;;;4991414;28;20497;-76
2021/12/04 10:35:44;;;;;;;9.57;1.73;;;21.90;62.90;;;;;;4992163;28;20446;-77
2021/12/04 10:38:18;;;;;;;7.72;1.90;;;21.90;62.90;;;;;;4990533;28;20079;-73
2021/12/04 10:40:47;;;;;;;6.50;1.88;;;21.90;63.30;;;;;;5002417;28;20044;-73
2021/12/04 10:43:35;;;;;;;4.82;2.22;;;21.90;62.60;;;;;;4995737;28;20026;-76
2021/12/04 10:46:25;;;;;;;4.25;1.55;;;21.90;62.70;;;;;;4992265;28;20046;-76
2021/12/04 10:49:02;;;;;;;7.80;1.75;;;21.90;63.00;;;;;;4988896;28;20045;-77
2021/12/04 10:51:45;;;;;;;10.18;1.60;;;21.90;63.30;;;;;;4992006;28;20026;-78
2021/12/04 10:54:26;;;;;;;5.25;1.23;;;21.90;63.60;;;;;;4981580;28;20023;-79
2021/12/04 10:57:29;;;;;;;6.53;1.65;;;21.90;63.80;;;;;;4991876;28;20037;-80
2021/12/04 10:59:59;;;;;;;9.20;1.80;;;21.90;64.00;;;;;;4991386;28;20413;-73
2021/12/04 11:02:51;;;;;;;8.77;3.80;;;21.90;64.10;;;;;;4991375;28;20019;-75
2021/12/04 11:25:54;;;;;;;7.10;1.90;;;22.30;64.10;;;;;;4995726;28;20477;-77
2021/12/04 11:41:43;;;;;;;11.02;5.97;;;22.70;62.90;;;;;;4990692;28;20042;-75
2021/12/04 11:44:26;;;;;;;21.48;11.93;;;22.80;62.90;;;;;;4991861;28;20033;-74
2021/12/04 11:46:59;;;;;;;10.98;4.18;;;22.90;61.70;;;;;;4998140;28;20041;-78
2021/12/04 11:49:31;;;;;;;8.57;3.20;;;23.00;60.10;;;;;;4998131;28;20076;-84
2021/12/04 11:52:07;;;;;;;8.10;1.83;;;23.20;59.60;;;;;;4993053;28;20018;-75
2021/12/04 11:54:45;;;;;;;3.90;1.38;;;23.50;59.30;;;;;;4997763;28;20030;-75
2021/12/04 11:57:14;;;;;;;4.35;1.17;;;23.70;58.40;;;;;;4991715;28;20019;-75
2021/12/04 11:59:42;;;;;;;6.57;1.65;;;24.00;56.90;;;;;;4995236;28;20025;-74
2021/12/04 12:02:17;;;;;;;4.75;1.75;;;24.30;56.60;;;;;;4996331;28;20030;-74
2021/12/04 12:04:54;;;;;;;18.75;11.80;;;24.50;57.20;;;;;;4992724;28;20465;-78
2021/12/04 12:07:30;;;;;;;14.43;8.23;;;24.70;57.20;;;;;;4989760;28;20042;-74
2021/12/04 12:10:10;;;;;;;8.20;2.83;;;24.80;56.90;;;;;;4993949;28;20104;-75
2021/12/04 12:12:41;;;;;;;6.57;2.15;;;24.80;56.70;;;;;;4990712;28;20022;-75
2021/12/04 12:15:28;;;;;;;4.35;2.00;;;24.80;57.40;;;;;;4993877;28;20821;-79
2021/12/04 12:17:55;;;;;;;6.57;1.52;;;24.90;56.50;;;;;;4993757;28;20599;-80
2021/12/04 12:20:46;;;;;;;11.27;2.30;;;25.00;55.70;;;;;;4993832;28;20018;-77
2021/12/04 12:23:16;;;;;;;5.75;1.40;;;25.10;55.80;;;;;;4998502;28;20026;-75
2021/12/04 12:36:02;;;;;;;9.55;1.90;;;25.40;55.60;;;;;;4990366;28;20022;-77
2021/12/04 12:37:26;;;;;;;10.02;2.20;;;25.40;55.10;;;;;;4993336;28;20101;-78
2021/12/04 12:40:12;;;;;;;8.95;2.10;;;25.40;54.90;;;;;;4994527;28;20041;-79
2021/12/04 12:42:41;;;;;;;5.03;2.03;;;25.50;55.20;;;;;;4995943;28;20039;-81
2021/12/04 12:45:33;;;;;;;4.93;2.05;;;25.50;55.10;;;;;;4994785;28;20014;-77
2021/12/04 12:48:07;;;;;;;6.97;2.28;;;25.50;54.50;;;;;;4992148;28;20042;-77
2021/12/04 12:50:38;;;;;;;6.60;2.45;;;25.60;54.00;;;;;;4994108;28;20737;-85
2021/12/04 12:53:09;;;;;;;8.43;1.98;;;25.60;54.10;;;;;;4991608;28;20146;-84
2021/12/04 12:55:36;;;;;;;7.95;1.65;;;25.60;54.20;;;;;;4990990;28;20073;-83
2021/12/04 12:58:23;;;;;;;8.70;2.22;;;25.60;54.10;;;;;;4993687;28;20026;-84
2021/12/04 13:12:05;;;;;;;5.63;1.70;;;25.80;54.00;;;;;;4990826;28;20085;-79
2021/12/04 13:14:45;;;;;;;11.15;3.00;;;25.80;54.00;;;;;;4993650;28;20029;-79
2021/12/04 13:17:22;;;;;;;9.68;2.45;;;25.80;54.00;;;;;;4986995;28;20496;-79
2021/12/04 13:19:52;;;;;;;13.20;2.10;;;25.80;54.20;;;;;;4992156;28;20129;-79
2021/12/04 13:22:27;;;;;;;10.80;2.15;;;25.80;54.50;;;;;;4989340;28;20460;-81
2021/12/04 13:24:54;;;;;;;;;;;25.80;54.60;;;;;;4992730;28;20029;-81
2021/12/04 13:29:56;;;;;;;12.73;3.17;;;25.80;54.60;;;;;;4990246;28;20038;-80
2021/12/04 13:32:33;;;;;;;11.65;2.72;;;25.90;54.70;;;;;;4990289;28;20018;-78
2021/12/04 13:35:12;;;;;;;12.30;3.10;;;25.90;54.60;;;;;;4987426;28;20057;-80
2021/12/04 13:37:39;;;;;;;9.77;2.72;;;25.90;54.60;;;;;;4989753;28;20030;-78
2021/12/04 13:40:10;;;;;;;15.68;3.50;;;25.90;54.70;;;;;;4991882;28;20543;-78
2021/12/04 13:42:38;;;;;;;23.25;12.68;;;25.80;54.90;;;;;;4995617;28;20039;-81
2021/12/04 13:45:11;;;;;;;13.60;5.47;;;25.80;55.10;;;;;;4992876;28;20050;-79
2021/12/04 13:47:39;;;;;;;13.93;4.07;;;25.80;55.00;;;;;;4992720;28;20045;-81
2021/12/04 13:50:59;;;;;;;20.73;4.90;;;25.70;55.20;;;;;;4992164;28;20022;-89
2021/12/04 13:53:16;;;;;;;10.68;4.45;;;25.70;55.40;;;;;;4990354;28;20138;-79
2021/12/04 13:55:51;;;;;;;11.23;4.57;;;25.70;55.70;;;;;;4992196;28;20109;-77
2021/12/04 13:58:17;;;;;;;16.65;4.35;;;25.70;55.50;;;;;;4991349;28;20377;-81
2021/12/04 14:00:44;;;;;;;10.98;4.22;;;25.70;55.60;;;;;;4993171;28;20551;-79
2021/12/04 14:03:12;;;;;;;12.80;4.13;;;25.70;55.80;;;;;;4992460;28;20088;-83
2021/12/04 14:05:38;;;;;;;10.75;4.93;;;25.70;55.80;;;;;;4994159;28;20026;-85
2021/12/04 14:08:06;;;;;;;18.08;4.32;;;25.60;55.70;;;;;;4989533;28;20053;-80
2021/12/04 14:11:00;;;;;;;20.77;5.43;;;25.50;55.60;;;;;;4992851;28;20033;-82
2021/12/04 14:13:30;;;;;;;25.27;5.35;;;25.40;56.10;;;;;;4988929;28;20376;-78
2021/12/04 14:15:56;;;;;;;16.83;5.38;;;25.30;56.20;;;;;;4992280;28;20041;-76
2021/12/04 14:18:26;;;;;;;15.82;6.35;;;25.20;56.00;;;;;;4991583;28;20092;-82
2021/12/04 14:21:00;;;;;;;11.88;6.25;;;25.10;56.20;;;;;;4991674;28;20040;-90
2021/12/04 14:23:33;;;;;;;8.93;4.18;;;25.00;56.60;;;;;;4993151;28;20125;-79
2021/12/04 14:26:03;;;;;;;9.75;3.40;;;24.90;56.60;;;;;;4993080;28;20022;-72
2021/12/04 14:28:43;;;;;;;12.68;3.55;;;24.80;56.70;;;;;;4992787;28;20476;-79
2021/12/04 14:31:11;;;;;;;10.70;3.78;;;24.70;56.60;;;;;;4988517;28;20063;-75
2021/12/04 14:33:40;;;;;;;14.40;4.20;;;24.60;57.00;;;;;;4990286;28;20014;-74
2021/12/04 14:36:07;;;;;;;10.60;2.70;;;24.60;57.30;;;;;;4993667;28;20093;-76
2021/12/04 14:38:33;;;;;;;10.05;3.15;;;24.40;57.40;;;;;;4991375;28;20007;-79
2021/12/04 14:41:07;;;;;;;12.40;3.80;;;24.30;57.80;;;;;;4993239;28;20024;-75
2021/12/04 14:43:39;;;;;;;12.60;3.33;;;24.20;57.90;;;;;;4992872;28;20024;-75
2021/12/04 14:46:13;;;;;;;18.88;5.68;;;24.20;58.30;;;;;;4988281;28;20023;-76
2021/12/04 14:48:49;;;;;;;14.07;3.75;;;24.10;58.90;;;;;;4988950;28;20046;-72
2021/12/04 14:51:19;;;;;;;20.08;5.28;;;24.10;59.20;;;;;;4993379;28;20018;-78
2021/12/04 14:53:50;;;;;;;14.23;7.20;;;24.00;59.90;;;;;;4991271;28;20031;-79
2021/12/04 14:56:19;;;;;;;12.80;5.93;;;24.00;60.10;;;;;;4988282;28;20426;-77
2021/12/04 14:58:47;;;;;;;22.02;7.97;;;23.90;60.50;;;;;;4990622;28;20042;-82
2021/12/04 15:01:16;;;;;;;127.65;80.65;;;23.80;60.80;;;;;;4994006;28;20457;-80
2021/12/04 15:03:44;;;;;;;191.13;113.57;;;23.80;62.60;;;;;;4992381;28;20077;-77
2021/12/04 15:06:14;;;;;;;564.28;506.25;;;23.70;62.80;;;;;;4991607;28;20029;-77
2021/12/04 15:08:45;;;;;;;446.50;402.20;;;23.70;62.70;;;;;;4991837;28;20045;-76
2021/12/04 15:11:14;;;;;;;188.73;152.55;;;23.70;63.50;;;;;;4991111;28;20017;-77
2021/12/04 15:13:53;;;;;;;105.88;90.57;;;23.70;63.00;;;;;;4990371;28;20442;-75
2021/12/04 15:17:07;;;;;;;140.88;106.22;;;23.70;63.20;;;;;;4994995;28;20029;-76
2021/12/04 15:19:14;;;;;;;51.72;41.78;;;23.60;62.90;;;;;;4988107;28;20504;-78
2021/12/04 15:21:56;;;;;;;57.92;47.83;;;23.60;62.60;;;;;;4990466;28;20023;-76
2021/12/04 15:24:29;;;;;;;547.47;494.83;;;23.50;62.90;;;;;;4991613;28;20022;-74
2021/12/04 15:27:00;;;;;;;109.60;92.78;;;23.40;64.00;;;;;;4989628;28;20038;-77
2021/12/04 15:29:30;;;;;;;37.83;30.75;;;23.40;64.10;;;;;;4989545;28;20022;-77
2021/12/04 15:32:00;;;;;;;16.95;5.90;;;23.40;63.30;;;;;;4989958;28;20595;-75
2021/12/04 15:34:46;;;;;;;16.83;5.22;;;23.30;63.40;;;;;;4994171;28;20038;-77
2021/12/04 15:37:13;;;;;;;16.80;4.15;;;23.20;63.80;;;;;;4989491;28;20109;-79
2021/12/04 15:40:23;;;;;;;11.52;4.60;;;23.10;64.10;;;;;;4993156;28;20022;-79
2021/12/04 15:44:00;;;;;;;16.50;4.75;;;23.00;64.70;;;;;;4992086;28;20516;-79
2021/12/04 15:47:10;;;;;;;18.58;4.43;;;22.90;64.80;;;;;;4990816;28;20037;-76
2021/12/04 15:55:03;;;;;;;9.67;3.97;;;22.60;65.90;;;;;;4950951;28;20483;-76
2021/12/04 15:57:31;;;;;;;25.25;4.55;;;22.50;66.00;;;;;;4951030;28;20035;-74
2021/12/04 16:00:03;;;;;;;19.63;4.57;;;22.60;66.10;;;;;;4977797;28;20469;-74
2021/12/04 16:02:33;;;;;;;17.75;5.85;;;22.50;66.10;;;;;;4992742;28;20066;-76
2021/12/04 16:05:18;;;;;;;11.65;4.40;;;22.50;66.40;;;;;;4993175;28;20066;-74
2021/12/04 16:07:48;;;;;;;17.42;5.05;;;22.50;66.30;;;;;;4990431;28;20041;-73
2021/12/04 16:10:19;;;;;;;14.48;4.15;;;22.40;66.50;;;;;;4990597;28;20030;-72
2021/12/04 16:12:50;;;;;;;21.00;5.78;;;22.40;66.50;;;;;;4993121;28;20029;-83
2021/12/04 16:15:59;;;;;;;14.32;3.75;;;22.40;66.70;;;;;;4991914;28;20025;-78